createdAt,value
2019-06-08T00:01:00.855Z,16.93
2019-06-08T00:03:29.758Z,15.43
2019-06-08T00:05:58.597Z,21.03
2019-06-08T00:08:27.532Z,16.00
2019-06-08T00:10:56.627Z,16.77
2019-06-08T00:13:25.654Z,17.23
2019-06-08T00:15:54.506Z,23.00
2019-06-08T00:18:23.678Z,18.80
2019-06-08T00:20:52.596Z,19.77
2019-06-08T00:23:21.983Z,17.10
2019-06-08T00:25:50.939Z,18.70
2019-06-08T00:28:20.393Z,18.10
2019-06-08T00:30:49.426Z,18.63
2019-06-08T00:33:18.600Z,19.87
2019-06-08T00:35:47.478Z,20.37
2019-06-08T00:38:16.879Z,18.33
2019-06-08T00:40:46.309Z,18.80
2019-06-08T00:43:15.192Z,21.13
2019-06-08T00:45:44.086Z,18.47
2019-06-08T00:48:12.985Z,18.70
2019-06-08T00:50:41.902Z,18.50
2019-06-08T00:53:10.734Z,17.40
2019-06-08T00:55:39.608Z,19.10
2019-06-08T00:58:08.466Z,25.53
2019-06-08T01:00:37.554Z,18.80
2019-06-08T01:03:06.514Z,19.97
2019-06-08T01:05:35.436Z,19.83
2019-06-08T01:08:04.490Z,20.53
2019-06-08T01:10:33.405Z,21.70
2019-06-08T01:13:02.337Z,17.93
2019-06-08T01:15:34.279Z,18.70
2019-06-08T01:18:04.115Z,22.00
2019-06-08T01:20:32.585Z,20.73
2019-06-08T01:23:01.396Z,23.77
2019-06-08T01:25:30.327Z,19.73
2019-06-08T01:27:59.121Z,21.43
2019-06-08T01:30:28.544Z,21.90
2019-06-08T01:32:57.467Z,23.60
2019-06-08T01:35:26.938Z,22.30
2019-06-08T01:37:55.909Z,23.37
2019-06-08T01:40:25.385Z,24.67
2019-06-08T01:42:54.373Z,22.10
2019-06-08T01:45:41.661Z,19.80
2019-06-08T01:48:20.076Z,15.87
2019-06-08T01:50:41.211Z,10.87
2019-06-08T01:53:10.171Z,10.93
2019-06-08T01:55:39.055Z,11.07
2019-06-08T01:58:08.101Z,5.37
2019-06-08T02:00:41.081Z,3.27
2019-06-08T02:03:07.317Z,4.00
2019-06-08T02:05:36.302Z,2.80
2019-06-08T02:08:05.487Z,2.17
2019-06-08T02:10:34.966Z,2.20
2019-06-08T02:13:03.944Z,2.73
2019-06-08T02:15:33.776Z,1.90
2019-06-08T02:18:02.794Z,2.60
2019-06-08T02:20:32.910Z,2.20
2019-06-08T02:23:01.879Z,2.80
2019-06-08T02:25:31.252Z,4.20
2019-06-08T02:28:00.376Z,2.50
2019-06-08T02:30:34.188Z,5.10
2019-06-08T02:33:01.979Z,4.30
2019-06-08T02:35:32.278Z,1.97
2019-06-08T02:38:01.545Z,1.80
2019-06-08T02:40:32.435Z,2.00
2019-06-08T02:43:01.186Z,2.13
2019-06-08T02:45:31.850Z,3.10
2019-06-08T02:48:00.622Z,2.77
2019-06-08T02:50:55.611Z,2.93
2019-06-08T02:53:25.186Z,1.80
2019-06-08T02:55:54.659Z,2.43
2019-06-08T02:58:23.795Z,1.90
2019-06-08T03:00:54.622Z,3.73
2019-06-08T03:03:23.541Z,1.43
2019-06-08T03:05:52.557Z,8.43
2019-06-08T03:08:21.809Z,2.10
2019-06-08T03:10:54.245Z,1.97
2019-06-08T03:13:25.983Z,3.83
2019-06-08T03:15:54.907Z,1.57
2019-06-08T03:18:23.801Z,1.63
2019-06-08T03:20:52.873Z,2.80
2019-06-08T03:23:21.797Z,3.37
2019-06-08T03:25:53.081Z,2.27
2019-06-08T03:28:21.292Z,3.00
2019-06-08T03:30:54.392Z,4.43
2019-06-08T03:33:20.762Z,1.20
2019-06-08T03:35:57.117Z,1.20
2019-06-08T03:38:20.250Z,2.30
2019-06-08T03:40:49.140Z,1.30
2019-06-08T03:43:18.009Z,4.30
2019-06-08T03:45:46.921Z,2.87
2019-06-08T03:48:15.770Z,1.93
2019-06-08T03:50:46.287Z,2.00
2019-06-08T03:53:15.184Z,2.80
2019-06-08T03:55:45.461Z,1.73
2019-06-08T03:58:14.797Z,2.00
2019-06-08T04:00:44.367Z,1.50
2019-06-08T04:03:13.466Z,2.47
2019-06-08T04:05:42.779Z,1.73
2019-06-08T04:08:12.878Z,1.60
2019-06-08T04:10:42.663Z,1.80
2019-06-08T04:13:12.374Z,1.70
2019-06-08T04:15:42.613Z,3.77
2019-06-08T04:18:11.906Z,1.23
2019-06-08T04:20:42.805Z,3.77
2019-06-08T04:23:11.468Z,2.23
2019-06-08T04:25:40.990Z,2.77
2019-06-08T04:28:10.873Z,1.30
2019-06-08T04:30:41.074Z,3.73
2019-06-08T04:33:10.263Z,2.87
2019-06-08T04:35:40.209Z,2.93
2019-06-08T04:38:09.681Z,1.87
2019-06-08T04:40:43.367Z,2.90
2019-06-08T04:43:12.366Z,2.13
2019-06-08T04:45:43.017Z,1.03
2019-06-08T04:48:11.772Z,3.03
2019-06-08T04:50:40.970Z,1.00
2019-06-08T04:53:10.966Z,1.33
2019-06-08T04:55:40.966Z,1.90
2019-06-08T04:58:10.020Z,1.10
2019-06-08T05:00:39.565Z,1.73
2019-06-08T05:03:09.721Z,1.93
2019-06-08T05:05:39.271Z,1.40
2019-06-08T05:08:09.375Z,1.10
2019-06-08T05:10:39.230Z,2.70
2019-06-08T05:13:08.195Z,1.47
2019-06-08T05:15:37.156Z,2.30
2019-06-08T05:18:06.163Z,0.80
2019-06-08T05:20:39.101Z,1.67
2019-06-08T05:23:05.599Z,2.20
2019-06-08T05:25:34.557Z,1.00
2019-06-08T05:28:03.418Z,0.87
2019-06-08T05:30:32.356Z,0.80
2019-06-08T05:33:01.254Z,1.67
2019-06-08T05:35:30.092Z,2.30
2019-06-08T05:37:59.000Z,0.90
2019-06-08T05:40:27.846Z,1.10
2019-06-08T05:42:56.720Z,3.10
2019-06-08T05:45:25.638Z,0.97
2019-06-08T05:47:54.441Z,0.83
2019-06-08T05:50:23.372Z,3.73
2019-06-08T05:52:52.227Z,1.53
2019-06-08T05:55:21.066Z,2.37
2019-06-08T05:57:50.552Z,1.10
2019-06-08T06:00:20.708Z,1.90
2019-06-08T06:02:50.897Z,2.17
2019-06-08T06:05:20.539Z,2.37
2019-06-08T06:07:49.499Z,3.30
2019-06-08T06:10:18.546Z,2.20
2019-06-08T06:12:47.415Z,0.97
2019-06-08T06:15:17.074Z,1.63
2019-06-08T06:17:46.641Z,1.10
2019-06-08T06:20:16.618Z,0.80
2019-06-08T06:22:45.835Z,0.83
2019-06-08T06:25:15.325Z,3.20
2019-06-08T06:27:45.512Z,0.70
2019-06-08T06:30:14.885Z,2.73
2019-06-08T06:32:43.881Z,0.90
2019-06-08T06:35:12.960Z,1.80
2019-06-08T06:37:41.884Z,1.43
2019-06-08T06:40:11.692Z,0.90
2019-06-08T06:42:41.956Z,0.97
2019-06-08T06:45:11.323Z,1.07
2019-06-08T06:47:40.293Z,0.83
2019-06-08T06:50:10.005Z,0.90
2019-06-08T06:52:38.970Z,0.60
2019-06-08T06:55:08.255Z,1.53
2019-06-08T06:57:37.121Z,3.20
2019-06-08T07:00:07.091Z,3.07
2019-06-08T07:02:36.115Z,0.97
2019-06-08T07:05:05.623Z,1.90
2019-06-08T07:07:35.610Z,2.00
2019-06-08T07:10:05.971Z,0.97
2019-06-08T07:12:35.210Z,1.30
2019-06-08T07:15:05.203Z,2.37
2019-06-08T07:17:34.181Z,1.17
2019-06-08T07:20:03.383Z,1.40
2019-06-08T07:22:32.385Z,2.37
2019-06-08T07:25:01.263Z,1.73
2019-06-08T07:27:30.080Z,1.90
2019-06-08T07:29:59.367Z,1.33
2019-06-08T07:32:28.379Z,0.77
2019-06-08T07:34:59.247Z,0.80
2019-06-08T07:37:28.292Z,3.03
2019-06-08T07:39:57.156Z,1.00
2019-06-08T07:42:26.434Z,1.83
2019-06-08T07:44:55.441Z,1.77
2019-06-08T07:47:24.401Z,2.13
2019-06-08T07:49:53.332Z,2.20
2019-06-08T07:52:22.260Z,0.60
2019-06-08T07:54:52.530Z,1.47
2019-06-08T07:57:22.014Z,1.43
2019-06-08T07:59:52.761Z,3.37
2019-06-08T08:02:21.532Z,1.00
2019-06-08T08:04:50.517Z,3.73
2019-06-08T08:07:19.409Z,2.50
2019-06-08T08:09:48.653Z,0.67
2019-06-08T08:12:17.573Z,4.03
2019-06-08T08:14:46.420Z,2.17
2019-06-08T08:17:15.278Z,1.30
2019-06-08T08:19:44.108Z,3.20
2019-06-08T08:22:25.902Z,2.60
2019-06-08T08:24:43.554Z,3.73
2019-06-08T08:27:12.500Z,2.47
2019-06-08T08:29:41.325Z,2.17
2019-06-08T08:32:10.884Z,1.70
2019-06-08T08:34:39.863Z,1.20
2019-06-08T08:37:09.669Z,1.57
2019-06-08T08:39:38.770Z,3.43
2019-06-08T08:42:08.428Z,5.50
2019-06-08T08:44:38.042Z,2.50
2019-06-08T08:47:07.808Z,1.27
2019-06-08T08:49:38.027Z,1.73
2019-06-08T08:52:08.853Z,1.10
2019-06-08T08:54:37.902Z,1.23
2019-06-08T08:57:08.550Z,2.87
2019-06-08T08:59:38.231Z,1.63
2019-06-08T09:02:10.997Z,1.67
2019-06-08T09:04:38.228Z,0.90
2019-06-08T09:07:10.330Z,2.17
2019-06-08T09:09:38.691Z,3.93
2019-06-08T09:12:08.617Z,1.87
2019-06-08T09:14:41.145Z,1.50
2019-06-08T09:17:08.733Z,1.43
2019-06-08T09:19:38.374Z,2.30
2019-06-08T09:22:08.579Z,1.10
2019-06-08T09:24:39.027Z,2.30
2019-06-08T09:27:08.388Z,3.03
2019-06-08T09:29:38.881Z,1.73
2019-06-08T09:32:08.351Z,2.13
2019-06-08T09:34:38.579Z,0.77
2019-06-08T09:37:08.385Z,2.00
2019-06-08T09:39:38.743Z,2.00
2019-06-08T09:42:08.973Z,0.77
2019-06-08T09:44:38.264Z,1.17
2019-06-08T09:47:12.197Z,2.93
2019-06-08T09:49:38.156Z,1.57
2019-06-08T09:52:08.545Z,1.03
2019-06-08T09:54:38.427Z,2.80
2019-06-08T09:57:09.045Z,3.17
2019-06-08T09:59:38.700Z,5.57
2019-06-08T10:02:12.476Z,4.40
2019-06-08T10:04:38.807Z,1.43
2019-06-08T10:07:08.948Z,2.33
2019-06-08T10:09:38.240Z,0.87
2019-06-08T10:12:09.695Z,2.20
2019-06-08T10:14:38.151Z,0.93
2019-06-08T10:17:08.914Z,1.50
2019-06-08T10:19:37.623Z,1.00
2019-06-08T10:22:08.509Z,4.07
2019-06-08T10:24:41.198Z,7.20
2019-06-08T10:27:11.054Z,1.97
2019-06-08T10:29:38.416Z,0.80
2019-06-08T10:32:09.477Z,2.17
2019-06-08T10:34:38.855Z,1.10
2019-06-08T10:37:12.649Z,1.53
2019-06-08T10:39:38.655Z,1.17
2019-06-08T10:42:11.036Z,1.63
2019-06-08T10:44:38.382Z,0.97
2019-06-08T10:47:09.970Z,1.43
2019-06-08T10:49:38.515Z,1.67
2019-06-08T10:52:10.732Z,2.23
2019-06-08T10:54:38.151Z,2.30
2019-06-08T10:57:07.716Z,3.23
2019-06-08T10:59:40.040Z,1.90
2019-06-08T11:02:13.295Z,4.60
2019-06-08T11:04:38.806Z,2.80
2019-06-08T11:07:13.889Z,1.20
2019-06-08T11:09:39.219Z,1.00
2019-06-08T11:12:14.623Z,1.13
2019-06-08T11:14:40.767Z,2.43
2019-06-08T11:17:11.220Z,2.37
2019-06-08T11:19:40.023Z,4.13
2019-06-08T11:22:14.226Z,2.03
2019-06-08T11:24:43.136Z,2.50
2019-06-08T11:27:13.052Z,2.20
2019-06-08T11:29:42.113Z,2.40
2019-06-08T11:32:12.594Z,1.97
2019-06-08T11:34:41.776Z,1.13
2019-06-08T11:37:13.060Z,2.47
2019-06-08T11:39:41.363Z,3.77
2019-06-08T11:42:12.857Z,1.27
2019-06-08T11:44:40.914Z,2.70
2019-06-08T11:47:12.968Z,1.00
2019-06-08T11:49:40.393Z,7.87
2019-06-08T11:52:11.090Z,8.70
2019-06-08T11:54:41.144Z,1.83
2019-06-08T11:57:12.779Z,1.90
2019-06-08T11:59:42.048Z,2.20
2019-06-08T12:02:13.900Z,1.90
2019-06-08T12:04:41.561Z,4.80
2019-06-08T12:07:12.255Z,2.70
2019-06-08T12:09:41.022Z,4.30
2019-06-08T12:12:17.161Z,3.37
2019-06-08T12:14:40.726Z,9.37
2019-06-08T12:17:12.809Z,1.30
2019-06-08T12:19:40.294Z,3.80
2019-06-08T12:22:11.489Z,4.43
2019-06-08T12:24:42.455Z,5.83
2019-06-08T12:27:24.819Z,1.53
2019-06-08T12:29:40.903Z,2.20
2019-06-08T12:32:12.097Z,4.63
2019-06-08T12:34:40.353Z,1.23
2019-06-08T12:37:14.528Z,3.90
2019-06-08T12:39:39.910Z,1.30
2019-06-08T12:42:18.090Z,1.43
2019-06-08T12:44:39.257Z,5.33
2019-06-08T12:47:13.329Z,1.13
2019-06-08T12:49:40.458Z,1.90
2019-06-08T12:52:12.067Z,4.93
2019-06-08T12:54:40.047Z,2.50
2019-06-08T12:57:13.421Z,3.13
2019-06-08T12:59:39.647Z,2.27
2019-06-08T13:02:14.835Z,3.83
2019-06-08T13:04:40.203Z,2.50
2019-06-08T13:07:10.508Z,3.93
2019-06-08T13:09:39.633Z,4.20
2019-06-08T13:12:09.797Z,1.43
2019-06-08T13:14:39.036Z,4.13
2019-06-08T13:17:08.697Z,3.50
2019-06-08T13:19:38.879Z,2.50
2019-06-08T13:22:08.962Z,2.20
2019-06-08T13:24:38.014Z,2.50
2019-06-08T13:27:07.000Z,3.20
2019-06-08T13:29:35.993Z,3.07
2019-06-08T13:32:05.031Z,2.27
2019-06-08T13:34:33.929Z,1.83
2019-06-08T13:37:02.732Z,5.70
2019-06-08T13:39:31.622Z,5.77
2019-06-08T13:42:00.877Z,1.50
2019-06-08T13:44:29.704Z,10.13
2019-06-08T13:46:58.692Z,8.50
2019-06-08T13:49:30.843Z,3.80
2019-06-08T13:51:58.557Z,1.83
2019-06-08T13:54:30.874Z,1.70
2019-06-08T13:56:58.993Z,4.80
2019-06-08T13:59:30.782Z,1.23
2019-06-08T14:01:58.748Z,5.23
2019-06-08T14:04:28.388Z,3.07
2019-06-08T14:06:58.315Z,4.27
2019-06-08T14:09:31.500Z,3.80
2019-06-08T14:11:59.648Z,11.20
2019-06-08T14:14:29.105Z,1.73
2019-06-08T14:16:58.767Z,4.27
2019-06-08T14:19:31.069Z,1.70
2019-06-08T14:21:58.714Z,3.33
2019-06-08T14:24:32.828Z,4.87
2019-06-08T14:26:58.773Z,3.83
2019-06-08T14:29:28.927Z,2.83
2019-06-08T14:31:58.505Z,1.73
2019-06-08T14:34:29.282Z,3.70
2019-06-08T14:36:59.425Z,5.63
2019-06-08T14:39:31.087Z,3.37
2019-06-08T14:41:59.448Z,1.40
2019-06-08T14:44:32.259Z,3.80
2019-06-08T14:47:01.829Z,3.00
2019-06-08T14:49:34.872Z,3.13
2019-06-08T14:52:01.858Z,3.10
2019-06-08T14:54:34.743Z,4.90
2019-06-08T14:57:01.233Z,2.13
2019-06-08T14:59:31.830Z,2.40
2019-06-08T15:02:00.750Z,1.20
2019-06-08T15:04:36.286Z,1.63
2019-06-08T15:07:00.369Z,2.20
2019-06-08T15:09:29.894Z,1.97
2019-06-08T15:11:58.817Z,2.23
2019-06-08T15:14:33.639Z,1.90
2019-06-08T15:16:59.418Z,1.47
2019-06-08T15:19:30.016Z,1.27
2019-06-08T15:21:59.205Z,1.63
2019-06-08T15:24:30.639Z,0.90
2019-06-08T15:26:58.832Z,4.57
2019-06-08T15:29:29.628Z,3.17
2019-06-08T15:31:58.440Z,2.73
2019-06-08T15:34:29.631Z,6.43
2019-06-08T15:36:58.073Z,4.97
2019-06-08T15:39:29.041Z,2.23
2019-06-08T15:42:00.096Z,2.20
2019-06-08T15:44:29.095Z,6.10
2019-06-08T15:46:59.019Z,4.97
2019-06-08T15:49:30.401Z,4.10
2019-06-08T15:51:58.434Z,2.83
2019-06-08T15:54:33.586Z,5.47
2019-06-08T15:56:58.593Z,6.00
2019-06-08T15:59:31.180Z,1.63
2019-06-08T16:01:58.296Z,1.67
2019-06-08T16:04:27.808Z,2.07
2019-06-08T16:06:56.994Z,2.93
2019-06-08T16:09:26.061Z,1.87
2019-06-08T16:11:55.029Z,2.40
2019-06-08T16:14:24.925Z,2.00
2019-06-08T16:16:54.188Z,4.90
2019-06-08T16:19:23.039Z,1.87
2019-06-08T16:21:52.128Z,5.33
2019-06-08T16:24:20.962Z,3.57
2019-06-08T16:26:53.356Z,2.50
2019-06-08T16:29:20.535Z,1.90
2019-06-08T16:31:49.464Z,2.30
2019-06-08T16:34:18.270Z,2.30
2019-06-08T16:36:47.409Z,3.83
2019-06-08T16:39:16.460Z,1.20
2019-06-08T16:41:45.618Z,1.70
2019-06-08T16:44:14.430Z,2.53
2019-06-08T16:46:43.264Z,2.40
2019-06-08T16:49:12.176Z,1.33
2019-06-08T16:51:41.236Z,4.30
2019-06-08T16:54:10.173Z,2.20
2019-06-08T16:56:40.212Z,4.30
2019-06-08T16:59:09.082Z,1.63
2019-06-08T17:01:38.930Z,1.90
2019-06-08T17:04:08.196Z,1.50
2019-06-08T17:06:37.379Z,10.57
2019-06-08T17:09:07.033Z,2.20
2019-06-08T17:11:36.040Z,2.10
2019-06-08T17:14:04.973Z,1.83
2019-06-08T17:16:34.460Z,3.33
2019-06-08T17:19:03.519Z,1.60
2019-06-08T17:21:32.579Z,2.20
2019-06-08T17:24:01.465Z,1.50
2019-06-08T17:26:32.532Z,1.77
2019-06-08T17:29:01.516Z,2.33
2019-06-08T17:31:31.082Z,1.43
2019-06-08T17:34:00.148Z,1.87
2019-06-08T17:36:29.178Z,2.90
2019-06-08T17:38:58.108Z,5.70
2019-06-08T17:41:26.977Z,3.93
2019-06-08T17:43:55.850Z,4.60
2019-06-08T17:46:24.793Z,1.30
2019-06-08T17:48:53.819Z,5.47
2019-06-08T17:51:22.748Z,2.57
2019-06-08T17:53:51.664Z,2.30
2019-06-08T17:56:20.596Z,2.33
2019-06-08T17:58:49.454Z,2.40
2019-06-08T18:01:18.277Z,2.50
2019-06-08T18:03:48.235Z,1.53
2019-06-08T18:06:17.966Z,3.37
2019-06-08T18:08:48.014Z,3.43
2019-06-08T18:11:17.437Z,2.30
2019-06-08T18:13:48.338Z,1.20
2019-06-08T18:16:19.374Z,2.30
2019-06-08T18:18:48.431Z,1.63
2019-06-08T18:21:17.858Z,2.63
2019-06-08T18:23:48.138Z,3.57
2019-06-08T18:26:20.055Z,1.70
2019-06-08T18:28:49.001Z,4.93
2019-06-08T18:31:18.150Z,2.80
2019-06-08T18:33:50.184Z,3.50
2019-06-08T18:36:21.127Z,2.43
2019-06-08T18:38:50.179Z,3.43
2019-06-08T18:41:19.060Z,6.17
2019-06-08T18:43:48.935Z,1.40
2019-06-08T18:46:19.558Z,3.93
2019-06-08T18:48:49.247Z,3.20
2019-06-08T18:51:18.458Z,1.93
2019-06-08T18:54:06.689Z,3.90
2019-06-08T18:56:18.381Z,1.60
2019-06-08T18:58:53.487Z,2.47
2019-06-08T19:01:22.832Z,2.67
2019-06-08T19:03:52.558Z,1.77
2019-06-08T19:06:21.312Z,2.67
2019-06-08T19:08:51.625Z,3.33
2019-06-08T19:11:25.013Z,1.60
2019-06-08T19:13:54.287Z,1.97
2019-06-08T19:16:23.458Z,2.30
2019-06-08T19:18:52.882Z,6.30
2019-06-08T19:21:21.880Z,1.90
2019-06-08T19:23:50.742Z,1.90
2019-06-08T19:26:19.576Z,3.80
2019-06-08T19:28:53.751Z,5.10
2019-06-08T19:31:30.872Z,2.70
2019-06-08T19:33:59.870Z,3.23
2019-06-08T19:36:28.822Z,3.67
2019-06-08T19:38:57.838Z,4.00
2019-06-08T19:41:28.298Z,1.63
2019-06-08T19:43:58.421Z,1.77
2019-06-08T19:46:28.136Z,3.63
2019-06-08T19:48:58.933Z,2.60
2019-06-08T19:51:28.286Z,1.23
2019-06-08T19:53:58.261Z,4.73
2019-06-08T19:56:28.210Z,11.50
2019-06-08T19:59:03.988Z,2.30
2019-06-08T20:01:28.447Z,2.60
2019-06-08T20:03:58.032Z,4.90
2019-06-08T20:06:28.074Z,3.80
2019-06-08T20:08:57.728Z,13.63
2019-06-08T20:11:29.252Z,4.03
2019-06-08T20:13:57.474Z,2.30
2019-06-08T20:16:27.839Z,2.07
2019-06-08T20:18:58.287Z,4.70
2019-06-08T20:21:27.943Z,3.53
2019-06-08T20:23:58.490Z,3.73
2019-06-08T20:26:28.452Z,2.77
2019-06-08T20:29:11.654Z,2.23
2019-06-08T20:31:28.053Z,5.23
2019-06-08T20:33:57.639Z,1.93
2019-06-08T20:36:28.671Z,2.00
2019-06-08T20:38:58.363Z,3.33
2019-06-08T20:41:27.784Z,1.77
2019-06-08T20:43:58.009Z,2.40
2019-06-08T20:46:28.666Z,2.70
2019-06-08T20:48:57.831Z,2.30
2019-06-08T20:51:27.876Z,2.43
2019-06-08T20:53:57.343Z,5.03
2019-06-08T20:56:28.146Z,4.70
2019-06-08T20:58:57.529Z,2.80
2019-06-08T21:01:26.407Z,2.27
2019-06-08T21:03:57.162Z,6.10
2019-06-08T21:06:27.739Z,3.53
2019-06-08T21:08:57.647Z,2.40
2019-06-08T21:11:27.187Z,3.63
2019-06-08T21:13:56.110Z,4.20
2019-06-08T21:16:27.507Z,4.10
2019-06-08T21:18:57.750Z,7.20
2019-06-08T21:21:28.130Z,4.63
2019-06-08T21:24:00.826Z,2.80
2019-06-08T21:26:26.764Z,4.07
2019-06-08T21:28:56.625Z,4.50
2019-06-08T21:31:25.355Z,3.57
2019-06-08T21:33:54.530Z,4.00
2019-06-08T21:36:24.409Z,2.90
2019-06-08T21:38:55.324Z,2.63
2019-06-08T21:41:24.025Z,2.27
2019-06-08T21:43:54.782Z,2.37
2019-06-08T21:46:27.499Z,4.30
2019-06-08T21:49:00.152Z,5.13
2019-06-08T21:51:28.460Z,3.90
2019-06-08T21:53:58.765Z,5.33
2019-06-08T21:56:27.667Z,1.97
2019-06-08T21:58:59.279Z,2.50
2019-06-08T22:01:28.360Z,2.60
2019-06-08T22:03:58.941Z,2.70
2019-06-08T22:06:27.584Z,4.53
2019-06-08T22:08:58.442Z,2.23
2019-06-08T22:11:26.055Z,2.10
2019-06-08T22:13:54.716Z,2.27
2019-06-08T22:16:23.294Z,1.73
2019-06-08T22:18:52.973Z,2.90
2019-06-08T22:21:21.991Z,2.00
2019-06-08T22:23:51.886Z,3.03
2019-06-08T22:26:21.292Z,1.50
2019-06-08T22:28:52.016Z,3.23
2019-06-08T22:31:23.133Z,4.17
2019-06-08T22:33:52.594Z,2.17
2019-06-08T22:36:21.889Z,1.50
2019-06-08T22:38:52.824Z,3.20
2019-06-08T22:41:21.278Z,3.30
2019-06-08T22:43:50.158Z,2.70
2019-06-08T22:46:19.012Z,8.73
2019-06-08T22:48:47.944Z,3.90
2019-06-08T22:51:18.750Z,2.27
2019-06-08T22:53:47.951Z,3.37
2019-06-08T22:56:18.355Z,3.67
2019-06-08T22:58:47.959Z,1.87
2019-06-08T23:01:27.698Z,7.33
2019-06-08T23:03:57.003Z,2.43
2019-06-08T23:06:27.934Z,4.20
2019-06-08T23:08:59.734Z,3.40
2019-06-08T23:11:25.648Z,2.90
2019-06-08T23:13:54.324Z,2.23
2019-06-08T23:16:22.726Z,2.70
2019-06-08T23:18:51.128Z,2.43
2019-06-08T23:21:19.560Z,4.23
2019-06-08T23:23:47.987Z,2.00
2019-06-08T23:26:18.388Z,5.70
2019-06-08T23:28:47.325Z,2.23
2019-06-08T23:31:24.708Z,3.70
2019-06-08T23:33:48.237Z,3.23
2019-06-08T23:38:48.124Z,3.07
2019-06-08T23:41:17.692Z,3.80
2019-06-08T23:43:48.044Z,3.10
2019-06-08T23:46:18.120Z,2.23
2019-06-08T23:48:48.469Z,2.07
2019-06-08T23:51:18.104Z,3.37
2019-06-08T23:53:47.812Z,2.70
2019-06-08T23:56:18.321Z,1.87
2019-06-08T23:58:48.247Z,2.30
